Hood College, Maryland
Current Conditions -  °F | °C
As of 10:30 PM on Friday 19 Dec 2014 (Local Time) from KFDK Reporting Station
Clear Clear  
Wind Chill: 32°   Ceiling: Unl
Heat Index: 32°   Visibility: 10mi
Dew Point: 19°   Wind: 3mph
Humidity: 60%   Direction: 320°NW
Pressure: 30.28"   Gusts: NA
Location:  39.4393°N, 77.3428°W
Report Text: KFDK 200330Z AUTO 32003KT 10SM CLR 00/M07 A3028 RMK AO2
Loading
Personal Weather Stations






























Interactive Weather Map New forecast layout! Learn more

10-Day Weather Forecast

Advertisements
Track Severe Weather on mobile